Time;durP1;ratioP1;P1;durP2;ratioP2;P2;SDS_P1;SDS_P2;PMS_P1;PMS_P2;Temp;Humidity;BMP_temperature;BMP_pressure;BME280_temperature;BME280_humidity;BME280_pressure;Samples;Min_cycle;Max_cycle;Signal;HPM_P1;HPM_P2
2022/02/03 00:00:23;;;;;;;11.07;7.78;;;8.60;99.90;;;;;;5074617;28;20201;-77
2022/02/03 00:05:48;;;;;;;11.10;8.20;;;8.60;99.90;;;;;;5060270;28;20276;-77
2022/02/03 00:08:37;;;;;;;18.55;13.65;;;8.70;99.90;;;;;;5061423;28;20230;-77
2022/02/03 00:17:00;;;;;;;9.73;7.60;;;8.70;99.90;;;;;;5061365;28;20194;-77
2022/02/03 00:22:22;;;;;;;8.98;7.20;;;8.70;99.90;;;;;;5058794;28;20729;-77
2022/02/03 00:25:03;;;;;;;9.65;7.57;;;8.70;99.90;;;;;;5058757;28;20202;-77
2022/02/03 00:27:45;;;;;;;11.73;7.75;;;8.60;99.90;;;;;;5061597;28;20239;-77
2022/02/03 00:30:15;;;;;;;14.38;7.40;;;8.60;99.90;;;;;;5048404;28;20322;-77
2022/02/03 00:32:52;;;;;;;8.32;7.45;;;8.70;99.90;;;;;;5053066;28;20215;-77
2022/02/03 00:35:42;;;;;;;8.10;7.20;;;8.70;99.90;;;;;;5055575;28;20212;-77
2022/02/03 00:49:19;;;;;;;11.70;6.72;;;8.70;99.90;;;;;;5078205;28;20213;-77
2022/02/03 00:51:50;;;;;;;8.43;6.85;;;8.60;99.90;;;;;;5077682;28;20234;-77
2022/02/03 00:54:20;;;;;;;7.82;6.50;;;8.60;99.90;;;;;;5077033;28;20233;-77
2022/02/03 00:56:53;;;;;;;8.25;6.80;;;8.60;99.90;;;;;;5077424;28;20187;-78
2022/02/03 00:59:28;;;;;;;8.27;6.75;;;8.60;99.90;;;;;;5055569;28;20603;-77
2022/02/03 01:01:59;;;;;;;7.47;6.68;;;8.60;99.90;;;;;;5057602;28;20211;-78
2022/02/03 01:04:30;;;;;;;9.05;7.75;;;8.60;99.90;;;;;;5078326;28;20395;-78
2022/02/03 01:06:59;;;;;;;7.85;7.05;;;8.60;99.90;;;;;;5077978;28;20219;-78
2022/02/03 01:09:28;;;;;;;8.20;6.40;;;8.60;99.90;;;;;;5078123;28;20470;-78
2022/02/03 01:12:04;;;;;;;8.27;6.90;;;8.60;99.90;;;;;;5077784;28;20202;-77
2022/02/03 01:14:42;;;;;;;9.30;8.05;;;8.50;99.90;;;;;;5057818;28;20230;-77
2022/02/03 01:17:25;;;;;;;8.65;7.35;;;8.50;99.90;;;;;;5061952;28;20271;-78
2022/02/03 01:33:52;;;;;;;9.38;7.10;;;8.60;99.90;;;;;;5065989;28;20709;-76
2022/02/03 01:44:48;;;;;;;9.93;7.07;;;8.60;99.90;;;;;;5054398;28;20220;-77
2022/02/03 01:47:28;;;;;;;7.88;6.63;;;8.60;99.90;;;;;;5054132;28;20251;-77
2022/02/03 01:52:47;;;;;;;9.65;6.93;;;8.60;99.90;;;;;;5054450;28;20273;-76
2022/02/03 01:55:20;;;;;;;9.38;6.88;;;8.70;99.90;;;;;;5068587;28;20575;-77
2022/02/03 01:57:57;;;;;;;9.23;7.15;;;8.70;99.90;;;;;;5064875;28;20231;-77
2022/02/03 02:00:25;;;;;;;8.10;6.55;;;8.70;99.90;;;;;;5060308;28;20647;-77
2022/02/03 02:03:08;;;;;;;9.32;6.50;;;8.70;99.90;;;;;;5063488;28;20210;-77
2022/02/03 02:05:46;;;;;;;9.40;7.03;;;8.70;99.90;;;;;;5057878;28;20563;-78
2022/02/03 02:08:23;;;;;;;7.60;6.80;;;8.70;99.90;;;;;;5055524;28;20245;-76
2022/02/03 02:11:12;;;;;;;9.13;7.00;;;8.70;99.90;;;;;;5056334;28;20240;-77
2022/02/03 02:14:03;;;;;;;7.43;6.00;;;8.70;99.90;;;;;;5053479;28;20214;-77
2022/02/03 02:17:06;;;;;;;11.80;6.75;;;8.70;99.90;;;;;;5054159;28;20733;-77
2022/02/03 02:19:51;;;;;;;8.23;6.88;;;8.60;99.90;;;;;;5034206;28;20211;-78
2022/02/03 02:39:12;;;;;;;8.25;6.97;;;8.70;99.90;;;;;;5057223;28;20244;-77
2022/02/03 02:44:57;;;;;;;8.57;6.53;;;8.80;99.90;;;;;;5036442;28;20663;-77
2022/02/03 02:47:30;;;;;;;8.60;6.93;;;8.80;99.90;;;;;;5041424;28;20227;-77
2022/02/03 02:50:06;;;;;;;10.38;7.25;;;8.70;99.90;;;;;;5058844;28;20212;-77
2022/02/03 02:52:42;;;;;;;8.15;6.72;;;8.70;99.90;;;;;;5069816;28;20209;-77
2022/02/03 02:55:22;;;;;;;7.05;6.35;;;8.80;99.90;;;;;;5069268;28;20213;-77
2022/02/03 02:58:27;;;;;;;10.00;7.10;;;8.80;99.90;;;;;;5074884;28;20218;-77
2022/02/03 03:01:48;;;;;;;10.10;6.78;;;8.70;99.90;;;;;;5075977;28;20203;-76
2022/02/03 03:28:49;;;;;;;9.10;7.47;;;8.70;99.90;;;;;;5072217;28;20209;-78
2022/02/03 03:29:37;;;;;;;8.18;6.30;;;8.80;99.90;;;;;;5062305;28;20301;-76
2022/02/03 03:32:35;;;;;;;7.47;6.70;;;8.80;99.90;;;;;;5063524;28;20211;-77
2022/02/03 03:35:13;;;;;;;8.27;6.63;;;8.80;99.90;;;;;;5063620;28;20202;-76
2022/02/03 03:37:46;;;;;;;8.25;6.88;;;8.70;99.90;;;;;;5061510;28;20311;-77
2022/02/03 03:40:14;;;;;;;8.95;7.28;;;8.70;99.90;;;;;;5060206;28;20290;-77
2022/02/03 03:42:45;;;;;;;7.65;6.65;;;8.70;99.90;;;;;;5056628;28;20199;-77
2022/02/03 03:45:13;;;;;;;10.68;6.75;;;8.70;99.90;;;;;;5060452;28;20658;-76
2022/02/03 03:47:47;;;;;;;11.35;7.50;;;8.80;99.90;;;;;;5062145;28;20288;-77
2022/02/03 03:50:17;;;;;;;8.82;6.30;;;8.80;99.90;;;;;;5061743;28;20254;-76
2022/02/03 03:52:55;;;;;;;9.20;7.30;;;8.80;99.90;;;;;;5062775;28;20210;-77
2022/02/03 03:55:35;;;;;;;8.00;6.80;;;8.80;99.90;;;;;;5058926;28;20299;-76
2022/02/03 03:58:25;;;;;;;10.10;7.35;;;8.70;99.90;;;;;;5059183;28;20230;-77
2022/02/03 04:31:34;;;;;;;9.70;8.27;;;8.40;99.90;;;;;;5046385;28;20580;-75
2022/02/03 04:34:19;;;;;;;10.55;7.78;;;8.50;99.90;;;;;;5058755;28;20693;-76
2022/02/03 04:43:24;;;;;;;13.05;8.05;;;8.40;99.90;;;;;;5040702;28;20194;-77
2022/02/03 04:59:01;;;;;;;12.25;8.73;;;8.40;99.90;;;;;;5043040;28;20249;-78
2022/02/03 05:01:51;;;;;;;12.18;9.02;;;8.40;99.90;;;;;;5062829;28;20212;-76
2022/02/03 05:04:37;;;;;;;10.32;8.23;;;8.40;99.90;;;;;;5072400;28;20208;-77
2022/02/03 05:07:50;;;;;;;11.88;8.23;;;8.30;99.90;;;;;;5067520;28;20238;-80
2022/02/03 05:10:43;;;;;;;12.80;8.88;;;8.20;99.90;;;;;;5049173;28;20433;-78
2022/02/03 05:13:39;;;;;;;11.10;8.68;;;8.20;99.90;;;;;;5057850;28;20192;-77
2022/02/03 05:20:15;;;;;;;12.20;8.73;;;8.20;99.90;;;;;;5111406;28;20525;-77
2022/02/03 05:26:22;;;;;;;12.73;9.25;;;8.20;99.90;;;;;;5091700;28;20626;-78
2022/02/03 05:32:39;;;;;;;11.70;8.40;;;8.30;99.90;;;;;;5074927;28;20220;-77
2022/02/03 05:42:01;;;;;;;14.30;9.30;;;8.30;99.90;;;;;;5088909;28;20204;-76
2022/02/03 05:44:29;;;;;;;11.20;8.23;;;8.30;99.90;;;;;;5090241;28;20241;-76
2022/02/03 05:50:20;;;;;;;9.88;7.57;;;8.10;99.90;;;;;;5071659;28;20666;-76
2022/02/03 05:54:37;;;;;;;12.43;8.18;;;8.10;99.90;;;;;;5090467;28;20213;-77
2022/02/03 06:01:57;;;;;;;14.15;8.95;;;7.90;99.90;;;;;;5070620;28;20254;-77
2022/02/03 06:04:46;;;;;;;12.30;8.68;;;7.90;99.90;;;;;;5071270;28;20217;-77
2022/02/03 06:12:59;;;;;;;16.15;10.38;;;7.90;99.90;;;;;;5069496;28;20194;-77
2022/02/03 06:15:34;;;;;;;16.05;9.88;;;7.80;99.90;;;;;;5077626;28;20197;-78
2022/02/03 06:23:43;;;;;;;16.02;10.98;;;7.90;99.90;;;;;;5072118;28;20244;-78
2022/02/03 06:29:17;;;;;;;14.98;9.65;;;7.90;99.90;;;;;;5047094;28;20192;-77
2022/02/03 06:31:46;;;;;;;13.98;9.90;;;7.80;99.90;;;;;;5022387;28;20702;-77
2022/02/03 06:34:14;;;;;;;13.73;9.70;;;7.90;99.90;;;;;;5041528;28;20221;-77
2022/02/03 06:36:42;;;;;;;17.00;9.70;;;7.90;99.90;;;;;;5078567;28;20240;-77
2022/02/03 06:39:16;;;;;;;16.70;10.73;;;7.90;99.90;;;;;;5080098;28;20597;-77
2022/02/03 06:41:45;;;;;;;14.45;10.20;;;7.80;99.90;;;;;;5082392;28;20279;-77
2022/02/03 06:44:14;;;;;;;14.07;10.00;;;7.70;99.90;;;;;;5080289;28;20241;-77
2022/02/03 06:46:45;;;;;;;12.93;9.48;;;7.70;99.90;;;;;;5058780;28;20268;-76
2022/02/03 06:49:18;;;;;;;16.90;10.20;;;7.70;99.90;;;;;;5057293;28;20226;-77
2022/02/03 06:51:53;;;;;;;12.25;9.68;;;7.70;99.90;;;;;;5078873;28;20194;-78
2022/02/03 06:54:28;;;;;;;13.07;9.98;;;7.80;99.90;;;;;;5080841;28;20278;-77
2022/02/03 06:57:01;;;;;;;14.05;9.38;;;7.90;99.90;;;;;;5076533;28;20626;-77
2022/02/03 06:59:36;;;;;;;15.70;11.02;;;7.90;99.90;;;;;;5071598;28;20297;-76
2022/02/03 07:02:04;;;;;;;15.95;10.35;;;8.00;99.90;;;;;;5078628;28;20303;-77
2022/02/03 07:04:39;;;;;;;14.80;10.57;;;8.00;99.90;;;;;;5095098;28;20205;-78
2022/02/03 07:07:06;;;;;;;15.95;10.93;;;8.00;99.90;;;;;;5094101;28;20239;-78
2022/02/03 07:09:33;;;;;;;16.77;11.90;;;8.10;99.90;;;;;;5094142;28;20221;-77
2022/02/03 07:12:04;;;;;;;15.23;11.40;;;8.10;99.90;;;;;;5090049;28;20190;-77
2022/02/03 07:14:32;;;;;;;19.00;13.93;;;8.20;99.90;;;;;;5077626;28;20229;-77
2022/02/03 07:17:01;;;;;;;17.50;11.15;;;8.20;99.90;;;;;;5073751;28;20257;-77
2022/02/03 07:19:28;;;;;;;18.75;12.52;;;8.20;99.90;;;;;;5096622;28;20328;-78
2022/02/03 07:21:55;;;;;;;19.48;12.38;;;8.20;99.90;;;;;;5096001;28;20199;-78
2022/02/03 07:24:22;;;;;;;20.20;12.50;;;8.20;99.90;;;;;;5095451;28;20209;-76
2022/02/03 07:26:49;;;;;;;20.52;12.82;;;8.20;99.90;;;;;;5092110;28;20216;-77
2022/02/03 07:29:17;;;;;;;17.05;12.32;;;8.20;99.90;;;;;;5093391;28;20278;-77
2022/02/03 07:31:44;;;;;;;16.48;11.73;;;8.20;99.90;;;;;;5075389;28;20287;-77
2022/02/03 07:34:14;;;;;;;17.00;11.25;;;8.20;99.90;;;;;;5072436;28;20294;-77
2022/02/03 07:36:43;;;;;;;18.17;11.40;;;8.30;99.90;;;;;;5075760;28;20206;-78
2022/02/03 07:39:09;;;;;;;15.63;11.13;;;8.30;99.90;;;;;;5074827;28;20237;-78
2022/02/03 07:41:37;;;;;;;16.05;11.18;;;8.30;99.90;;;;;;5074702;28;20198;-78
2022/02/03 07:44:04;;;;;;;16.92;11.45;;;8.30;99.90;;;;;;5085200;28;20205;-78
2022/02/03 07:46:32;;;;;;;20.17;12.10;;;8.30;99.90;;;;;;5090313;28;20210;-77
2022/02/03 07:48:59;;;;;;;17.40;11.75;;;8.20;99.90;;;;;;5074699;28;20253;-78
2022/02/03 07:51:29;;;;;;;14.90;11.63;;;8.30;99.90;;;;;;5063901;28;20682;-78
2022/02/03 07:53:56;;;;;;;15.27;11.07;;;8.40;99.90;;;;;;5068603;28;20564;-79
2022/02/03 07:56:23;;;;;;;19.95;11.93;;;8.40;99.90;;;;;;5070065;28;20218;-79
2022/02/03 07:58:51;;;;;;;19.38;11.40;;;8.50;99.90;;;;;;5068595;28;20270;-79
2022/02/03 08:01:18;;;;;;;12.00;9.98;;;8.60;99.90;;;;;;5065950;28;20206;-78
2022/02/03 08:03:46;;;;;;;13.50;10.35;;;8.60;99.90;;;;;;5065230;28;20198;-79
2022/02/03 08:06:19;;;;;;;11.77;9.93;;;8.60;99.90;;;;;;5067355;28;20214;-79
2022/02/03 08:08:47;;;;;;;12.68;9.80;;;8.70;99.90;;;;;;5064934;28;20769;-79
2022/02/03 08:11:19;;;;;;;12.95;9.40;;;8.80;99.90;;;;;;5066910;28;20241;-79
2022/02/03 08:13:52;;;;;;;13.25;9.93;;;8.80;99.90;;;;;;5068762;28;20693;-78
2022/02/03 08:16:24;;;;;;;13.70;10.43;;;8.70;99.90;;;;;;5072875;28;20213;-78
2022/02/03 08:18:58;;;;;;;13.77;9.80;;;8.80;99.90;;;;;;5069774;28;20237;-78
2022/02/03 08:21:26;;;;;;;14.05;9.10;;;8.80;99.90;;;;;;5063529;28;20198;-79
2022/02/03 08:26:48;;;;;;;14.55;9.90;;;8.90;99.90;;;;;;5058731;28;20203;-79
2022/02/03 08:29:37;;;;;;;17.80;10.75;;;9.00;99.90;;;;;;5069295;28;20217;-78
2022/02/03 08:32:11;;;;;;;14.60;9.90;;;9.00;99.90;;;;;;5045309;28;20200;-78
2022/02/03 08:34:48;;;;;;;12.15;9.38;;;9.10;99.90;;;;;;5058684;28;20206;-78
2022/02/03 08:37:16;;;;;;;15.10;9.80;;;9.10;99.90;;;;;;5068094;28;20652;-77
2022/02/03 08:39:52;;;;;;;11.45;8.75;;;9.20;99.30;;;;;;5075165;28;20288;-78
2022/02/03 08:42:19;;;;;;;12.90;8.60;;;9.30;98.60;;;;;;5064798;28;20217;-78
2022/02/03 08:44:47;;;;;;;9.95;8.38;;;9.30;96.90;;;;;;5067921;28;20219;-79
2022/02/03 08:47:14;;;;;;;10.63;8.82;;;9.40;95.50;;;;;;5062473;28;20230;-78
2022/02/03 08:49:46;;;;;;;9.77;8.23;;;9.40;95.10;;;;;;5067552;28;20229;-79
2022/02/03 08:52:17;;;;;;;11.15;8.13;;;9.40;95.10;;;;;;5065870;28;20205;-79
2022/02/03 08:54:54;;;;;;;11.68;8.48;;;9.50;94.40;;;;;;5065012;28;20210;-78
2022/02/03 08:57:33;;;;;;;10.32;8.60;;;9.40;93.70;;;;;;5060590;28;20242;-78
2022/02/03 09:00:18;;;;;;;12.80;8.02;;;9.30;93.60;;;;;;5060918;28;20222;-78
2022/02/03 09:36:12;;;;;;;7.35;6.60;;;10.10;88.90;;;;;;5070404;28;20205;-82
2022/02/03 09:38:58;;;;;;;7.28;6.57;;;9.90;89.80;;;;;;5066701;28;20270;-83
2022/02/03 09:41:49;;;;;;;10.68;7.85;;;10.00;88.80;;;;;;5067278;28;20182;-81
2022/02/03 09:55:40;;;;;;;5.80;4.90;;;10.60;84.00;;;;;;5058552;28;20543;-82
2022/02/03 09:58:14;;;;;;;7.13;6.13;;;10.70;81.10;;;;;;5045513;28;20289;-80
2022/02/03 10:00:45;;;;;;;6.95;4.93;;;10.70;80.20;;;;;;5054682;28;20226;-79
2022/02/03 10:03:16;;;;;;;6.60;5.55;;;10.80;79.90;;;;;;5044516;28;20185;-80
2022/02/03 10:05:57;;;;;;;5.60;5.00;;;10.90;78.80;;;;;;5057870;28;20188;-80
2022/02/03 10:08:26;;;;;;;5.82;5.22;;;10.90;77.10;;;;;;5077669;28;20241;-80
2022/02/03 10:11:10;;;;;;;6.13;5.53;;;11.00;77.20;;;;;;5093242;28;20567;-81
2022/02/03 10:13:43;;;;;;;5.97;5.28;;;10.90;76.70;;;;;;5089881;28;20206;-81
2022/02/03 10:16:10;;;;;;;6.47;5.30;;;11.00;77.20;;;;;;5075203;28;20259;-81
2022/02/03 10:18:37;;;;;;;7.70;5.53;;;11.10;76.90;;;;;;5075785;28;20234;-83
2022/02/03 10:21:07;;;;;;;6.90;5.40;;;11.10;74.30;;;;;;5069144;28;20207;-81
2022/02/03 10:23:52;;;;;;;5.70;5.10;;;11.20;74.80;;;;;;5069328;28;20232;-81
2022/02/03 10:26:21;;;;;;;4.32;3.92;;;11.10;73.70;;;;;;5082788;28;20286;-81
2022/02/03 10:28:56;;;;;;;5.57;4.95;;;11.20;73.70;;;;;;5086436;28;20223;-84
2022/02/03 10:31:25;;;;;;;4.93;4.32;;;11.40;72.50;;;;;;5072284;28;20203;-82
2022/02/03 10:34:03;;;;;;;5.00;4.50;;;11.40;71.10;;;;;;5068128;28;20203;-80
2022/02/03 10:36:49;;;;;;;5.00;4.60;;;11.30;72.40;;;;;;5066692;28;20302;-81
2022/02/03 10:45:34;;;;;;;4.50;4.10;;;11.40;71.30;;;;;;5073299;28;20230;-81
2022/02/03 10:48:34;;;;;;;5.70;4.78;;;11.50;71.40;;;;;;5067874;28;20322;-81
2022/02/03 10:51:19;;;;;;;5.47;4.70;;;11.60;71.20;;;;;;5066270;28;20219;-82
2022/02/03 11:02:59;;;;;;;4.50;4.10;;;11.90;68.40;;;;;;4997524;28;20197;-80
2022/02/03 11:05:51;;;;;;;4.15;3.75;;;11.90;67.10;;;;;;5041167;28;20243;-81
2022/02/03 11:08:25;;;;;;;4.30;3.90;;;11.60;67.70;;;;;;5044063;28;20224;-82
2022/02/03 11:10:57;;;;;;;5.25;3.85;;;11.60;68.10;;;;;;5046044;28;20197;-79
2022/02/03 11:13:29;;;;;;;4.30;3.88;;;11.70;68.10;;;;;;5041399;28;20209;-80
2022/02/03 11:16:03;;;;;;;3.72;3.40;;;11.70;67.30;;;;;;5060172;28;20209;-81
2022/02/03 11:18:31;;;;;;;3.85;3.50;;;11.70;67.70;;;;;;5085376;28;20239;-79
2022/02/03 11:20:59;;;;;;;3.72;3.42;;;11.70;66.60;;;;;;5085029;28;20223;-81
2022/02/03 11:23:36;;;;;;;3.90;3.60;;;11.60;66.80;;;;;;5089518;28;20279;-81
2022/02/03 11:26:13;;;;;;;4.85;3.58;;;11.60;67.50;;;;;;5082315;28;20203;-80
2022/02/03 11:29:13;;;;;;;4.25;3.50;;;11.80;67.10;;;;;;5084441;28;20298;-80
2022/02/03 11:52:01;;;;;;;3.28;2.88;;;11.80;62.30;;;;;;5070427;28;20214;-79
2022/02/03 12:17:47;;;;;;;2.90;2.70;;;11.70;63.20;;;;;;5098509;28;20314;-80
2022/02/03 12:20:21;;;;;;;2.70;2.25;;;11.90;62.50;;;;;;5124389;28;20220;-81
2022/02/03 12:23:03;;;;;;;2.60;2.40;;;11.90;62.40;;;;;;5131692;28;20187;-82
2022/02/03 12:25:43;;;;;;;2.70;2.50;;;12.00;62.00;;;;;;5129229;28;20223;-81
2022/02/03 12:28:23;;;;;;;2.28;2.13;;;12.00;61.60;;;;;;5130153;28;20237;-83
2022/02/03 12:31:37;;;;;;;2.67;2.47;;;12.10;61.80;;;;;;5125842;28;20202;-83
2022/02/03 12:37:11;;;;;;;2.63;2.42;;;12.10;60.60;;;;;;5127807;28;20308;-80
2022/02/03 12:39:53;;;;;;;2.78;2.22;;;12.20;60.70;;;;;;5124130;28;20596;-79
2022/02/03 12:42:33;;;;;;;1.80;1.67;;;12.20;59.90;;;;;;5123900;28;20220;-81
2022/02/03 12:45:14;;;;;;;3.65;2.00;;;12.30;59.50;;;;;;5118055;28;20765;-78
2022/02/03 12:47:45;;;;;;;2.28;1.95;;;12.20;60.10;;;;;;5119622;28;20606;-78
2022/02/03 12:50:16;;;;;;;2.45;2.22;;;12.10;60.10;;;;;;5120851;28;20213;-78
2022/02/03 12:52:45;;;;;;;1.85;1.75;;;12.10;59.30;;;;;;5115295;28;20234;-79
2022/02/03 12:55:24;;;;;;;3.60;1.90;;;11.90;59.60;;;;;;5114667;28;20202;-79
2022/02/03 12:57:52;;;;;;;2.65;2.00;;;11.90;60.40;;;;;;5113955;28;20326;-79
2022/02/03 13:00:27;;;;;;;2.05;1.90;;;11.80;60.30;;;;;;5120080;28;20217;-80
2022/02/03 13:02:59;;;;;;;2.20;2.00;;;11.80;60.30;;;;;;5115121;28;20232;-77
2022/02/03 13:05:28;;;;;;;3.05;2.25;;;11.90;60.40;;;;;;5116946;28;20192;-78
2022/02/03 13:07:57;;;;;;;2.35;2.15;;;11.90;60.40;;;;;;5118070;28;20235;-79
2022/02/03 13:10:27;;;;;;;2.13;1.92;;;11.70;60.20;;;;;;5121399;28;20206;-81
2022/02/03 13:13:04;;;;;;;2.85;2.00;;;11.50;60.00;;;;;;5118623;28;20218;-80
2022/02/03 13:15:34;;;;;;;2.17;1.98;;;11.50;61.20;;;;;;5116669;28;20206;-80
2022/02/03 13:18:07;;;;;;;3.10;2.10;;;11.50;61.20;;;;;;5114134;28;20267;-80
2022/02/03 13:20:42;;;;;;;2.40;1.83;;;11.50;60.00;;;;;;5112247;28;20207;-79
2022/02/03 13:23:13;;;;;;;2.63;2.25;;;11.40;61.10;;;;;;5119102;28;20199;-80
2022/02/03 13:25:51;;;;;;;2.65;2.45;;;11.20;61.20;;;;;;5107769;28;20206;-79
2022/02/03 13:28:27;;;;;;;2.05;1.90;;;11.20;61.90;;;;;;5100495;28;20226;-81
2022/02/03 13:30:58;;;;;;;2.17;1.77;;;11.20;62.00;;;;;;5102607;28;20258;-80
2022/02/03 13:33:31;;;;;;;2.33;1.85;;;11.20;62.40;;;;;;5097379;28;20275;-79
2022/02/03 13:36:03;;;;;;;1.70;1.60;;;11.10;61.30;;;;;;5097376;28;20264;-78
2022/02/03 13:38:40;;;;;;;4.32;1.83;;;11.10;61.90;;;;;;5086335;28;20236;-81
2022/02/03 13:41:13;;;;;;;2.63;2.00;;;11.10;62.40;;;;;;5102078;28;20298;-79
2022/02/03 13:43:41;;;;;;;1.77;1.67;;;11.00;62.90;;;;;;5101088;28;20186;-80
2022/02/03 13:46:09;;;;;;;2.22;2.03;;;11.10;61.90;;;;;;5101938;28;20234;-79
2022/02/03 13:48:39;;;;;;;1.33;1.30;;;11.30;61.80;;;;;;5101738;28;20235;-80
2022/02/03 13:51:09;;;;;;;1.70;1.45;;;11.40;60.70;;;;;;5103583;28;20223;-80
2022/02/03 13:53:41;;;;;;;2.13;2.03;;;11.50;60.00;;;;;;5106151;28;20705;-82
2022/02/03 14:15:56;;;;;;;2.75;2.33;;;11.20;61.00;;;;;;5082465;28;20214;-82
2022/02/03 14:18:45;;;;;;;4.00;3.00;;;11.20;60.90;;;;;;5081457;28;20229;-80
2022/02/03 14:21:19;;;;;;;3.08;2.78;;;11.20;61.00;;;;;;5096217;28;20202;-81
2022/02/03 14:29:20;;;;;;;4.25;2.92;;;11.10;62.00;;;;;;5080422;28;20289;-80
2022/02/03 14:31:57;;;;;;;5.60;2.50;;;10.90;62.00;;;;;;5081357;28;20186;-82
2022/02/03 14:34:29;;;;;;;2.60;2.40;;;10.90;62.30;;;;;;5093050;28;20305;-80
2022/02/03 14:37:05;;;;;;;2.97;2.60;;;10.90;62.00;;;;;;5099630;28;20213;-80
2022/02/03 14:39:49;;;;;;;2.95;2.42;;;10.80;62.50;;;;;;5106911;28;20202;-78
2022/02/03 14:42:16;;;;;;;3.33;2.92;;;10.80;62.30;;;;;;5095863;28;20219;-82
2022/02/03 14:44:44;;;;;;;2.88;2.55;;;10.70;62.40;;;;;;5108959;28;20204;-81
2022/02/03 14:47:11;;;;;;;2.60;2.40;;;10.60;61.90;;;;;;5106531;28;20222;-80
2022/02/03 14:49:42;;;;;;;2.40;2.20;;;10.50;61.90;;;;;;5095780;28;20213;-82
2022/02/03 14:52:22;;;;;;;2.40;2.20;;;10.50;62.60;;;;;;5105892;28;20174;-79
2022/02/03 15:00:20;;;;;;;9.48;3.25;;;10.40;63.50;;;;;;5104312;28;20266;-79
2022/02/03 15:02:49;;;;;;;3.60;2.90;;;10.40;63.50;;;;;;5094280;28;20275;-79
2022/02/03 15:05:24;;;;;;;3.60;3.30;;;10.30;64.20;;;;;;5087396;28;20237;-80
2022/02/03 15:07:57;;;;;;;3.50;3.20;;;10.30;64.60;;;;;;5083758;28;20214;-78
2022/02/03 15:10:43;;;;;;;3.90;3.55;;;10.30;65.10;;;;;;5088913;28;20202;-81
2022/02/03 15:13:16;;;;;;;4.47;3.45;;;10.30;65.00;;;;;;5105204;28;20250;-79
2022/02/03 15:15:47;;;;;;;6.60;3.55;;;10.20;65.30;;;;;;5089756;28;20228;-80
2022/02/03 15:18:17;;;;;;;3.70;3.30;;;10.20;66.10;;;;;;5090941;28;20239;-80
2022/02/03 15:20:44;;;;;;;4.15;3.47;;;10.20;66.20;;;;;;5104066;28;20208;-76
2022/02/03 15:23:12;;;;;;;3.67;3.38;;;10.20;66.70;;;;;;5114202;28;20186;-83
2022/02/03 15:25:39;;;;;;;2.80;2.60;;;10.20;67.20;;;;;;5115427;28;20225;-79
2022/02/03 15:28:07;;;;;;;3.25;2.95;;;10.10;64.50;;;;;;5100581;28;20291;-81
2022/02/03 15:30:34;;;;;;;2.90;2.42;;;10.00;64.90;;;;;;5096949;28;20221;-82
2022/02/03 15:33:01;;;;;;;3.05;2.50;;;9.90;67.30;;;;;;5094904;28;20289;-82
2022/02/03 15:35:32;;;;;;;2.00;1.90;;;9.90;66.10;;;;;;5093280;28;20613;-80
2022/02/03 15:38:00;;;;;;;2.70;2.50;;;9.90;66.00;;;;;;5090708;28;20236;-80
2022/02/03 15:40:30;;;;;;;2.25;2.05;;;9.80;65.70;;;;;;5100635;28;20209;-79
2022/02/03 15:43:02;;;;;;;2.08;1.77;;;9.70;65.00;;;;;;5102040;28;20230;-80
2022/02/03 15:45:34;;;;;;;2.38;1.80;;;9.60;65.60;;;;;;5100423;28;20269;-81
2022/02/03 15:48:09;;;;;;;2.70;2.05;;;9.60;66.00;;;;;;5104381;28;20206;-80
2022/02/03 15:50:58;;;;;;;1.95;1.75;;;9.60;66.10;;;;;;5103975;28;20197;-80
2022/02/03 16:02:10;;;;;;;2.47;2.05;;;9.50;66.30;;;;;;5105941;28;20609;-80
2022/02/03 16:18:36;;;;;;;2.00;1.90;;;9.40;65.40;;;;;;5063111;28;20227;-78
2022/02/03 16:21:14;;;;;;;4.00;2.50;;;9.30;65.10;;;;;;5061360;28;20499;-80
2022/02/03 16:24:03;;;;;;;2.38;2.17;;;9.30;65.70;;;;;;5087517;28;20206;-81
2022/02/03 16:26:59;;;;;;;4.53;2.10;;;9.30;66.10;;;;;;5100468;28;20197;-79
2022/02/03 16:51:36;;;;;;;2.50;2.30;;;9.20;67.10;;;;;;5106222;28;20208;-81
2022/02/03 16:54:07;;;;;;;2.65;2.40;;;9.10;67.70;;;;;;5100232;28;20216;-80
2022/02/03 16:56:34;;;;;;;3.10;2.63;;;9.20;67.90;;;;;;5098724;28;20262;-80
2022/02/03 16:59:03;;;;;;;2.90;2.60;;;9.20;67.90;;;;;;5102946;28;20248;-80
2022/02/03 17:01:32;;;;;;;2.90;2.53;;;9.20;67.90;;;;;;5104085;28;20260;-80
2022/02/03 17:03:59;;;;;;;2.90;2.45;;;9.20;67.90;;;;;;5100037;28;20264;-82
2022/02/03 17:06:26;;;;;;;4.03;3.35;;;9.20;67.90;;;;;;5115506;28;20222;-79
2022/02/03 17:08:53;;;;;;;3.55;3.15;;;9.10;67.80;;;;;;5118624;28;20251;-81
2022/02/03 17:11:20;;;;;;;3.80;3.30;;;9.10;67.80;;;;;;5118747;28;20201;-81
2022/02/03 17:13:47;;;;;;;4.00;3.50;;;9.20;67.90;;;;;;5112256;28;20210;-80
2022/02/03 17:16:20;;;;;;;3.42;3.00;;;9.10;67.80;;;;;;5101514;28;20195;-79
2022/02/03 17:18:50;;;;;;;3.10;2.75;;;9.10;67.80;;;;;;5101153;28;20275;-81
2022/02/03 17:21:17;;;;;;;5.05;3.70;;;9.10;67.80;;;;;;5108404;28;20202;-80
2022/02/03 17:23:45;;;;;;;3.33;3.03;;;9.10;67.80;;;;;;5107660;28;20202;-80
2022/02/03 17:26:13;;;;;;;4.07;3.03;;;9.10;67.80;;;;;;5114984;28;20203;-81
2022/02/03 17:28:46;;;;;;;3.80;3.45;;;9.10;68.70;;;;;;5103892;28;20253;-80
2022/02/03 17:31:19;;;;;;;5.25;3.53;;;9.00;68.80;;;;;;5090971;28;20295;-79
2022/02/03 17:45:38;;;;;;;4.40;3.03;;;9.10;68.90;;;;;;5106424;28;20209;-80
2022/02/03 18:10:01;;;;;;;4.45;3.40;;;9.00;69.80;;;;;;5073662;28;20200;-80
2022/02/03 18:32:16;;;;;;;3.20;2.70;;;9.00;70.70;;;;;;5051219;28;20215;-81
2022/02/03 18:34:55;;;;;;;3.20;2.90;;;9.00;71.20;;;;;;5067168;28;20234;-80
2022/02/03 18:37:37;;;;;;;2.90;2.70;;;8.90;71.20;;;;;;5066642;28;20214;-82
2022/02/03 18:46:17;;;;;;;3.92;3.45;;;8.90;72.10;;;;;;5070900;28;20249;-82
2022/02/03 18:51:40;;;;;;;5.38;4.32;;;8.80;72.80;;;;;;5095408;28;20241;-84
2022/02/03 18:54:18;;;;;;;5.07;3.75;;;8.80;72.70;;;;;;5078027;28;20286;-84
2022/02/03 18:56:54;;;;;;;5.43;4.50;;;8.80;73.00;;;;;;5077960;28;20214;-82
2022/02/03 18:59:40;;;;;;;4.53;3.83;;;8.80;73.20;;;;;;5069142;28;20197;-83
2022/02/03 19:02:36;;;;;;;4.13;3.67;;;8.80;73.30;;;;;;5070349;28;20330;-83
2022/02/03 19:24:45;;;;;;;6.40;5.15;;;8.60;75.20;;;;;;5051435;28;20206;-85
2022/02/03 20:07:12;;;;;;;7.10;5.70;;;8.60;76.00;;;;;;5049886;28;20218;-83
2022/02/03 20:09:59;;;;;;;5.15;4.65;;;8.60;76.20;;;;;;5054961;28;20195;-85
2022/02/03 20:12:26;;;;;;;6.80;4.95;;;8.60;76.30;;;;;;5075455;28;20245;-84
2022/02/03 20:14:53;;;;;;;6.38;5.65;;;8.60;76.00;;;;;;5068276;28;20285;-84
2022/02/03 20:17:21;;;;;;;5.78;5.20;;;8.60;76.00;;;;;;5061645;28;20210;-84
2022/02/03 20:19:48;;;;;;;7.50;5.93;;;8.60;76.70;;;;;;5060242;28;20211;-83
2022/02/03 20:22:18;;;;;;;9.32;5.57;;;8.60;76.00;;;;;;5069866;28;20252;-82
2022/02/03 20:24:46;;;;;;;6.70;5.75;;;8.60;76.00;;;;;;5079933;28;20212;-85
2022/02/03 20:27:38;;;;;;;7.07;5.38;;;8.60;76.00;;;;;;5096458;28;20190;-83
2022/02/03 20:30:08;;;;;;;8.25;6.32;;;8.50;76.00;;;;;;5087418;28;20256;-80
2022/02/03 20:32:36;;;;;;;7.57;6.35;;;8.50;76.00;;;;;;5069327;28;20226;-82
2022/02/03 20:35:04;;;;;;;6.72;6.00;;;8.50;76.80;;;;;;5063793;28;20265;-83
2022/02/03 20:37:33;;;;;;;6.95;5.70;;;8.50;76.80;;;;;;5065350;28;20249;-84
2022/02/03 20:40:00;;;;;;;7.38;6.15;;;8.40;76.80;;;;;;5063289;28;20678;-83
2022/02/03 20:42:29;;;;;;;5.50;5.00;;;8.40;76.80;;;;;;5063419;28;20234;-83
2022/02/03 20:44:57;;;;;;;7.50;5.47;;;8.30;76.70;;;;;;5069037;28;20270;-84
2022/02/03 20:47:31;;;;;;;6.15;5.55;;;8.40;77.30;;;;;;5066632;28;20207;-81
2022/02/03 20:53:30;;;;;;;7.35;6.00;;;8.30;76.40;;;;;;5045834;28;20695;-83
2022/02/03 20:56:01;;;;;;;6.22;5.53;;;8.30;77.20;;;;;;5021891;28;20224;-83
2022/02/03 20:58:30;;;;;;;7.57;5.43;;;8.20;77.40;;;;;;5008760;28;20209;-81
2022/02/03 21:01:01;;;;;;;9.20;5.15;;;8.20;78.30;;;;;;5008827;28;20212;-80
2022/02/03 21:03:33;;;;;;;8.13;5.88;;;8.20;78.00;;;;;;5007626;28;20283;-85
2022/02/03 21:06:02;;;;;;;6.53;5.80;;;8.10;78.10;;;;;;5005612;28;20654;-80
2022/02/03 21:08:33;;;;;;;9.27;6.40;;;8.10;78.40;;;;;;5007070;28;20234;-82
2022/02/03 21:11:07;;;;;;;7.75;6.20;;;8.10;78.60;;;;;;5005963;28;20244;-80
2022/02/03 21:13:35;;;;;;;5.38;4.88;;;8.10;78.10;;;;;;5005377;28;20579;-81
2022/02/03 21:16:06;;;;;;;7.28;5.65;;;8.10;77.80;;;;;;5012515;28;20244;-83
2022/02/03 21:18:37;;;;;;;6.43;5.70;;;8.10;77.60;;;;;;5014573;28;20225;-81
2022/02/03 21:21:05;;;;;;;5.00;4.57;;;8.10;77.30;;;;;;5015409;28;20237;-80
2022/02/03 21:23:35;;;;;;;5.82;5.25;;;8.10;77.40;;;;;;5015151;28;20220;-80
2022/02/03 21:26:05;;;;;;;5.72;5.07;;;8.10;77.10;;;;;;5034968;28;20204;-82
2022/02/03 21:28:34;;;;;;;7.68;6.05;;;8.10;77.20;;;;;;5053079;28;20227;-83
2022/02/03 21:31:05;;;;;;;6.22;5.47;;;8.10;77.50;;;;;;5050633;28;20203;-83
2022/02/03 21:33:34;;;;;;;7.25;6.50;;;8.00;77.70;;;;;;5053433;28;20212;-83
2022/02/03 21:36:12;;;;;;;6.72;5.80;;;8.10;77.60;;;;;;5048804;28;20357;-81
2022/02/03 21:38:46;;;;;;;7.43;5.55;;;8.20;77.30;;;;;;5049636;28;20311;-81